Virginiborg — PBDL — position and weather

sailwx.info

Track history (hours):
 
Tides and Currents Weather Stations Pressure Air Temp Water Temp Dewpoint Dewpoint Depression Visibility Wind Speed Wind Dir Waves Ship Positions

Virginiborg

Last reported at 2016-Feb-08 12:33 UTC. Time now 2016-Feb-13 17:05 UTC.
Position N 58°44' W 004°14'.

Length 132 m; draft 7.5 m.

Type: Cargo ship. MMSI: 244632000.

Date/timePositionNaut miles runAvg speedWind from/ knotsBaromVisibWave heightAir tempDewpointWater temp
2016-Feb-08 12:33N 58°44' W 004°14'1111.1
2016-Feb-08 11:33N 58°44' W 003°52'1110.5
2016-Feb-08 10:33N 58°44' W 003°32'11 8.8
2016-Feb-08 09:16N 58°43' W 003°10'4 5.4
2016-Feb-08 08:33N 58°43' W 003°03'5 5.0
2016-Feb-08 07:33N 58°42' W 002°53'10 9.7
2016-Feb-08 06:33N 58°42' W 002°35'266 7.4
2016-Feb-06 18:33N 58°02' E 005°47'1211.7
2016-Feb-06 17:33N 57°53' E 006°02'1211.7
2016-Feb-06 16:34N 57°45' E 006°16'1412.1
2016-Feb-06 15:25N 57°35' E 006°34'117 9.0
2016-Feb-06 02:26N 57°49' E 010°11'1011.3
2016-Feb-06 01:33N 57°49' E 010°30'9 8.8
2016-Feb-06 00:33N 57°45' E 010°45'5 0.8
2016-Feb-05 18:15N 57°42' E 010°37'1 0.9
2016-Feb-05 17:30N 57°41' E 010°37'1 0.6
2016-Feb-05 16:28N 57°41' E 010°37'0 0.2
2016-Feb-05 15:24N 57°42' E 010°37'910.4
2016-Feb-05 14:33N 57°37' E 010°51'1212.1
2016-Feb-05 13:33N 57°32' E 011°12'1211.5
2016-Feb-05 12:33N 57°25' E 011°29'1212.2
2016-Feb-05 11:33N 57°13' E 011°37'1212.0
2016-Feb-05 10:33N 57°02' E 011°44'1211.9
2016-Feb-05 09:33N 56°52' E 011°55'1111.4
2016-Feb-05 08:33N 56°42' E 012°04'1110.7
2016-Feb-05 07:33N 56°32' E 012°11'2711.3
2016-Feb-05 05:08N 56°07' E 012°33'712.1
2016-Feb-05 04:33N 56°02' E 012°41'1211.5
2016-Feb-05 03:33N 55°50' E 012°44'1111.3
2016-Feb-05 02:33N 55°39' E 012°42'9 8.9
2016-Feb-05 01:33N 55°30' E 012°43'1211.7
2016-Feb-05 00:33N 55°19' E 012°42'1111.1
2016-Feb-04 23:33N 55°16' E 013°01'1211.6
2016-Feb-04 22:33N 55°15' E 013°21'1211.6
2016-Feb-04 21:31N 55°14' E 013°42'1111.3
2016-Feb-04 20:33N 55°14' E 014°01'1010.3
2016-Feb-04 19:33N 55°15' E 014°19'1211.9
2016-Feb-04 18:33N 55°25' E 014°32'1211.9
2016-Feb-04 17:34N 55°31' E 014°50'1111.4
2016-Feb-04 16:33N 55°37' E 015°07'1211.5
2016-Feb-04 15:32N 55°43' E 015°25'9710.8
2016-Feb-04 06:33N 57°00' E 017°10'1111.5
2016-Feb-04 05:33N 57°11' E 017°16'1111.4
2016-Feb-04 04:33N 57°23' E 017°20'1111.4
2016-Feb-04 03:33N 57°34' E 017°22'  
2016-Jan-31 09:09N 58°41' E 017°08'4 6.5
2016-Jan-31 08:33N 58°41' E 017°16'9 9.0
2016-Jan-31 07:33N 58°37' E 017°31'  
Track history (hours):
 
Tides and Currents Weather Stations Pressure Air Temp Water Temp Dewpoint Dewpoint Depression Visibility Wind Speed Wind Dir Waves Ship Positions

Virginiborg

Last reported at 2016-Feb-08 12:33 UTC. Time now 2016-Feb-13 17:05 UTC.
Position N 58°44' W 004°14'.

Length 132 m; draft 7.5 m.

Type: Cargo ship. MMSI: 244632000.

Date/timePositionNaut miles runAvg speedWind from/ knotsBaromVisibWave heightAir tempDewpointWater temp
2016-Feb-08 12:33N 58°44' W 004°14'1111.1
2016-Feb-08 11:33N 58°44' W 003°52'1110.5
2016-Feb-08 10:33N 58°44' W 003°32'11 8.8
2016-Feb-08 09:16N 58°43' W 003°10'4 5.4
2016-Feb-08 08:33N 58°43' W 003°03'5 5.0
2016-Feb-08 07:33N 58°42' W 002°53'10 9.7
2016-Feb-08 06:33N 58°42' W 002°35'266 7.4
2016-Feb-06 18:33N 58°02' E 005°47'1211.7
2016-Feb-06 17:33N 57°53' E 006°02'1211.7
2016-Feb-06 16:34N 57°45' E 006°16'1412.1
2016-Feb-06 15:25N 57°35' E 006°34'117 9.0
2016-Feb-06 02:26N 57°49' E 010°11'1011.3
2016-Feb-06 01:33N 57°49' E 010°30'9 8.8
2016-Feb-06 00:33N 57°45' E 010°45'5 0.8
2016-Feb-05 18:15N 57°42' E 010°37'1 0.9
2016-Feb-05 17:30N 57°41' E 010°37'1 0.6
2016-Feb-05 16:28N 57°41' E 010°37'0 0.2
2016-Feb-05 15:24N 57°42' E 010°37'910.4
2016-Feb-05 14:33N 57°37' E 010°51'1212.1
2016-Feb-05 13:33N 57°32' E 011°12'1211.5
2016-Feb-05 12:33N 57°25' E 011°29'1212.2
2016-Feb-05 11:33N 57°13' E 011°37'1212.0
2016-Feb-05 10:33N 57°02' E 011°44'1211.9
2016-Feb-05 09:33N 56°52' E 011°55'1111.4
2016-Feb-05 08:33N 56°42' E 012°04'1110.7
2016-Feb-05 07:33N 56°32' E 012°11'2711.3
2016-Feb-05 05:08N 56°07' E 012°33'712.1
2016-Feb-05 04:33N 56°02' E 012°41'1211.5
2016-Feb-05 03:33N 55°50' E 012°44'1111.3
2016-Feb-05 02:33N 55°39' E 012°42'9 8.9
2016-Feb-05 01:33N 55°30' E 012°43'1211.7
2016-Feb-05 00:33N 55°19' E 012°42'1111.1
2016-Feb-04 23:33N 55°16' E 013°01'1211.6
2016-Feb-04 22:33N 55°15' E 013°21'1211.6
2016-Feb-04 21:31N 55°14' E 013°42'1111.3
2016-Feb-04 20:33N 55°14' E 014°01'1010.3
2016-Feb-04 19:33N 55°15' E 014°19'1211.9
2016-Feb-04 18:33N 55°25' E 014°32'1211.9
2016-Feb-04 17:34N 55°31' E 014°50'1111.4
2016-Feb-04 16:33N 55°37' E 015°07'1211.5
2016-Feb-04 15:32N 55°43' E 015°25'9710.8
2016-Feb-04 06:33N 57°00' E 017°10'1111.5
2016-Feb-04 05:33N 57°11' E 017°16'1111.4
2016-Feb-04 04:33N 57°23' E 017°20'1111.4
2016-Feb-04 03:33N 57°34' E 017°22'  
2016-Jan-31 09:09N 58°41' E 017°08'4 6.5
2016-Jan-31 08:33N 58°41' E 017°16'9 9.0
2016-Jan-31 07:33N 58°37' E 017°31'  

Dump ship's entire track history